sensor_id;sensor_type;location;lat;lon;timestamp;temperature;humidity
2489;DHT22;1255;48.716;9.124;2022-10-03T00:01:38;11.60;99.90
2489;DHT22;1255;48.716;9.124;2022-10-03T00:04:17;11.60;99.90
2489;DHT22;1255;48.716;9.124;2022-10-03T00:06:58;11.60;99.90
2489;DHT22;1255;48.716;9.124;2022-10-03T00:09:38;11.60;99.90
2489;DHT22;1255;48.716;9.124;2022-10-03T00:12:15;11.60;99.90
2489;DHT22;1255;48.716;9.124;2022-10-03T00:14:50;11.50;99.90
2489;DHT22;1255;48.716;9.124;2022-10-03T00:17:26;11.50;99.90
2489;DHT22;1255;48.716;9.124;2022-10-03T00:20:02;11.50;99.90
2489;DHT22;1255;48.716;9.124;2022-10-03T00:22:36;11.50;99.90
2489;DHT22;1255;48.716;9.124;2022-10-03T00:25:26;11.40;99.90
2489;DHT22;1255;48.716;9.124;2022-10-03T00:28:08;11.40;99.90
2489;DHT22;1255;48.716;9.124;2022-10-03T00:31:03;11.30;99.90
2489;DHT22;1255;48.716;9.124;2022-10-03T00:33:43;11.30;99.90
2489;DHT22;1255;48.716;9.124;2022-10-03T00:36:16;11.30;99.90
2489;DHT22;1255;48.716;9.124;2022-10-03T00:42:27;11.20;99.90
2489;DHT22;1255;48.716;9.124;2022-10-03T00:45:38;11.20;99.90
2489;DHT22;1255;48.716;9.124;2022-10-03T00:48:27;11.20;99.90
2489;DHT22;1255;48.716;9.124;2022-10-03T00:51:18;11.20;99.90
2489;DHT22;1255;48.716;9.124;2022-10-03T00:54:01;11.20;99.90
2489;DHT22;1255;48.716;9.124;2022-10-03T00:56:43;11.20;99.90
2489;DHT22;1255;48.716;9.124;2022-10-03T00:59:23;11.20;99.90
2489;DHT22;1255;48.716;9.124;2022-10-03T01:01:54;11.20;99.90
2489;DHT22;1255;48.716;9.124;2022-10-03T01:04:42;11.20;99.90
2489;DHT22;1255;48.716;9.124;2022-10-03T01:07:24;11.20;99.90
2489;DHT22;1255;48.716;9.124;2022-10-03T01:10:12;11.20;99.90
2489;DHT22;1255;48.716;9.124;2022-10-03T01:12:54;11.30;99.90
2489;DHT22;1255;48.716;9.124;2022-10-03T01:15:30;11.20;99.90
2489;DHT22;1255;48.716;9.124;2022-10-03T01:18:17;11.30;99.90
2489;DHT22;1255;48.716;9.124;2022-10-03T01:20:53;11.30;99.90
2489;DHT22;1255;48.716;9.124;2022-10-03T01:24:04;11.30;99.90
2489;DHT22;1255;48.716;9.124;2022-10-03T01:29:40;11.30;99.90
2489;DHT22;1255;48.716;9.124;2022-10-03T01:32:32;11.30;99.90
2489;DHT22;1255;48.716;9.124;2022-10-03T01:35:10;11.30;99.90
2489;DHT22;1255;48.716;9.124;2022-10-03T01:37:46;11.30;99.90
2489;DHT22;1255;48.716;9.124;2022-10-03T01:40:20;11.30;99.90
2489;DHT22;1255;48.716;9.124;2022-10-03T01:42:59;11.20;99.90
2489;DHT22;1255;48.716;9.124;2022-10-03T01:45:36;11.20;99.90
2489;DHT22;1255;48.716;9.124;2022-10-03T01:48:12;11.20;99.90
2489;DHT22;1255;48.716;9.124;2022-10-03T01:50:50;11.10;99.90
2489;DHT22;1255;48.716;9.124;2022-10-03T01:53:27;11.10;99.90
2489;DHT22;1255;48.716;9.124;2022-10-03T01:56:01;11.00;99.90
2489;DHT22;1255;48.716;9.124;2022-10-03T01:58:38;10.90;99.90
2489;DHT22;1255;48.716;9.124;2022-10-03T02:01:10;10.90;99.90
2489;DHT22;1255;48.716;9.124;2022-10-03T02:03:44;10.90;99.90
2489;DHT22;1255;48.716;9.124;2022-10-03T02:06:20;10.80;99.90
2489;DHT22;1255;48.716;9.124;2022-10-03T02:08:54;10.80;99.90
2489;DHT22;1255;48.716;9.124;2022-10-03T02:11:30;10.80;99.90
2489;DHT22;1255;48.716;9.124;2022-10-03T02:14:14;10.70;99.90
2489;DHT22;1255;48.716;9.124;2022-10-03T02:16:44;10.70;99.90
2489;DHT22;1255;48.716;9.124;2022-10-03T02:19:23;10.80;99.90
2489;DHT22;1255;48.716;9.124;2022-10-03T02:21:53;10.80;99.90
2489;DHT22;1255;48.716;9.124;2022-10-03T02:24:28;10.80;99.90
2489;DHT22;1255;48.716;9.124;2022-10-03T02:27:19;10.80;99.90
2489;DHT22;1255;48.716;9.124;2022-10-03T02:30:08;10.80;99.90
2489;DHT22;1255;48.716;9.124;2022-10-03T02:35:53;10.90;99.90
2489;DHT22;1255;48.716;9.124;2022-10-03T02:38:34;10.90;99.90
2489;DHT22;1255;48.716;9.124;2022-10-03T02:41:17;10.90;99.90
2489;DHT22;1255;48.716;9.124;2022-10-03T02:44:20;10.90;99.90
2489;DHT22;1255;48.716;9.124;2022-10-03T02:47:32;10.90;99.90
2489;DHT22;1255;48.716;9.124;2022-10-03T02:50:48;10.80;99.90
2489;DHT22;1255;48.716;9.124;2022-10-03T02:53:47;10.90;99.90
2489;DHT22;1255;48.716;9.124;2022-10-03T02:56:45;10.80;99.90
2489;DHT22;1255;48.716;9.124;2022-10-03T02:59:46;10.70;99.90
2489;DHT22;1255;48.716;9.124;2022-10-03T03:02:49;10.70;99.90
2489;DHT22;1255;48.716;9.124;2022-10-03T03:05:35;10.60;99.90
2489;DHT22;1255;48.716;9.124;2022-10-03T03:08:43;10.50;99.90
2489;DHT22;1255;48.716;9.124;2022-10-03T03:11:37;10.50;99.90
2489;DHT22;1255;48.716;9.124;2022-10-03T03:14:30;10.50;99.90
2489;DHT22;1255;48.716;9.124;2022-10-03T03:17:20;10.50;99.90
2489;DHT22;1255;48.716;9.124;2022-10-03T03:20:01;10.40;99.90
2489;DHT22;1255;48.716;9.124;2022-10-03T03:22:45;10.30;99.90
2489;DHT22;1255;48.716;9.124;2022-10-03T03:25:43;10.30;99.90
2489;DHT22;1255;48.716;9.124;2022-10-03T03:28:25;10.30;99.90
2489;DHT22;1255;48.716;9.124;2022-10-03T03:31:04;10.20;99.90
2489;DHT22;1255;48.716;9.124;2022-10-03T03:33:45;10.10;99.90
2489;DHT22;1255;48.716;9.124;2022-10-03T03:36:22;10.10;99.90
2489;DHT22;1255;48.716;9.124;2022-10-03T03:38:56;10.00;99.90
2489;DHT22;1255;48.716;9.124;2022-10-03T03:41:44;10.00;99.90
2489;DHT22;1255;48.716;9.124;2022-10-03T03:44:35;10.00;99.90
2489;DHT22;1255;48.716;9.124;2022-10-03T03:47:21;9.90;99.90
2489;DHT22;1255;48.716;9.124;2022-10-03T03:50:06;9.80;99.90
2489;DHT22;1255;48.716;9.124;2022-10-03T03:52:49;9.80;99.90
2489;DHT22;1255;48.716;9.124;2022-10-03T03:55:31;9.70;99.90
2489;DHT22;1255;48.716;9.124;2022-10-03T03:58:15;9.70;99.90
2489;DHT22;1255;48.716;9.124;2022-10-03T04:00:58;9.60;99.90
2489;DHT22;1255;48.716;9.124;2022-10-03T04:03:36;9.60;99.90
2489;DHT22;1255;48.716;9.124;2022-10-03T04:06:16;9.60;99.90
2489;DHT22;1255;48.716;9.124;2022-10-03T04:09:02;9.60;99.90
2489;DHT22;1255;48.716;9.124;2022-10-03T04:11:43;9.60;99.90
2489;DHT22;1255;48.716;9.124;2022-10-03T04:14:49;9.60;99.90
2489;DHT22;1255;48.716;9.124;2022-10-03T04:20:52;9.60;99.90
2489;DHT22;1255;48.716;9.124;2022-10-03T04:23:44;9.60;99.90
2489;DHT22;1255;48.716;9.124;2022-10-03T04:26:23;9.60;99.90
2489;DHT22;1255;48.716;9.124;2022-10-03T04:29:21;9.60;99.90
2489;DHT22;1255;48.716;9.124;2022-10-03T04:31:57;9.60;99.90
2489;DHT22;1255;48.716;9.124;2022-10-03T04:34:39;9.60;99.90
2489;DHT22;1255;48.716;9.124;2022-10-03T04:37:26;9.60;99.90
2489;DHT22;1255;48.716;9.124;2022-10-03T04:40:09;9.60;99.90
2489;DHT22;1255;48.716;9.124;2022-10-03T04:42:49;9.60;99.90
2489;DHT22;1255;48.716;9.124;2022-10-03T04:45:28;9.60;99.90
2489;DHT22;1255;48.716;9.124;2022-10-03T04:48:05;9.60;99.90
2489;DHT22;1255;48.716;9.124;2022-10-03T04:50:39;9.60;99.90
2489;DHT22;1255;48.716;9.124;2022-10-03T04:53:18;9.60;99.90
2489;DHT22;1255;48.716;9.124;2022-10-03T04:55:50;9.50;99.90
2489;DHT22;1255;48.716;9.124;2022-10-03T04:58:28;9.50;99.90
2489;DHT22;1255;48.716;9.124;2022-10-03T05:01:02;9.50;99.90
2489;DHT22;1255;48.716;9.124;2022-10-03T05:03:44;9.50;99.90
2489;DHT22;1255;48.716;9.124;2022-10-03T05:06:36;9.50;99.90
2489;DHT22;1255;48.716;9.124;2022-10-03T05:09:19;9.50;99.90
2489;DHT22;1255;48.716;9.124;2022-10-03T05:11:56;9.40;99.90
2489;DHT22;1255;48.716;9.124;2022-10-03T05:14:38;9.40;99.90
2489;DHT22;1255;48.716;9.124;2022-10-03T05:17:14;9.40;99.90
2489;DHT22;1255;48.716;9.124;2022-10-03T05:19:59;9.40;99.90
2489;DHT22;1255;48.716;9.124;2022-10-03T05:22:37;9.40;99.90
2489;DHT22;1255;48.716;9.124;2022-10-03T05:25:25;9.40;99.90
2489;DHT22;1255;48.716;9.124;2022-10-03T05:28:03;9.50;99.90
2489;DHT22;1255;48.716;9.124;2022-10-03T05:30:39;9.40;99.90
2489;DHT22;1255;48.716;9.124;2022-10-03T05:33:13;9.40;99.90
2489;DHT22;1255;48.716;9.124;2022-10-03T05:35:50;9.50;99.90
2489;DHT22;1255;48.716;9.124;2022-10-03T05:38:43;9.50;99.90
2489;DHT22;1255;48.716;9.124;2022-10-03T05:41:21;9.50;99.90
2489;DHT22;1255;48.716;9.124;2022-10-03T05:44:00;9.60;99.90
2489;DHT22;1255;48.716;9.124;2022-10-03T05:46:43;9.60;99.90
2489;DHT22;1255;48.716;9.124;2022-10-03T05:49:27;9.70;99.90
2489;DHT22;1255;48.716;9.124;2022-10-03T05:52:15;9.70;99.90
2489;DHT22;1255;48.716;9.124;2022-10-03T05:55:00;9.80;99.90
2489;DHT22;1255;48.716;9.124;2022-10-03T05:57:54;9.80;99.90
2489;DHT22;1255;48.716;9.124;2022-10-03T06:00:32;9.90;99.90
2489;DHT22;1255;48.716;9.124;2022-10-03T06:06:10;10.10;99.90
2489;DHT22;1255;48.716;9.124;2022-10-03T06:09:14;10.10;99.90
2489;DHT22;1255;48.716;9.124;2022-10-03T06:12:07;10.20;99.90
2489;DHT22;1255;48.716;9.124;2022-10-03T06:14:49;10.50;99.90
2489;DHT22;1255;48.716;9.124;2022-10-03T06:17:32;10.50;99.90
2489;DHT22;1255;48.716;9.124;2022-10-03T06:20:22;10.60;99.90
2489;DHT22;1255;48.716;9.124;2022-10-03T06:23:29;10.80;99.90
2489;DHT22;1255;48.716;9.124;2022-10-03T06:26:22;10.70;99.90
2489;DHT22;1255;48.716;9.124;2022-10-03T06:38:51;10.70;99.90
2489;DHT22;1255;48.716;9.124;2022-10-03T06:47:48;10.80;99.90
2489;DHT22;1255;48.716;9.124;2022-10-03T06:50:29;10.80;99.90
2489;DHT22;1255;48.716;9.124;2022-10-03T06:53:35;10.90;99.90
2489;DHT22;1255;48.716;9.124;2022-10-03T06:59:39;11.20;99.90
2489;DHT22;1255;48.716;9.124;2022-10-03T07:05:33;11.30;99.90
2489;DHT22;1255;48.716;9.124;2022-10-03T07:08:35;11.30;99.90
2489;DHT22;1255;48.716;9.124;2022-10-03T07:11:28;11.30;99.90
2489;DHT22;1255;48.716;9.124;2022-10-03T07:17:21;11.20;99.90
2489;DHT22;1255;48.716;9.124;2022-10-03T07:29:36;11.20;99.90
2489;DHT22;1255;48.716;9.124;2022-10-03T07:32:55;11.20;99.90
2489;DHT22;1255;48.716;9.124;2022-10-03T07:35:40;11.20;99.90
2489;DHT22;1255;48.716;9.124;2022-10-03T07:38:44;11.20;99.90
2489;DHT22;1255;48.716;9.124;2022-10-03T07:42:02;11.10;99.90
2489;DHT22;1255;48.716;9.124;2022-10-03T08:00:18;11.10;99.90
2489;DHT22;1255;48.716;9.124;2022-10-03T08:03:23;11.10;99.90
2489;DHT22;1255;48.716;9.124;2022-10-03T08:06:17;11.10;99.90
2489;DHT22;1255;48.716;9.124;2022-10-03T08:09:07;11.10;99.90
2489;DHT22;1255;48.716;9.124;2022-10-03T08:14:51;11.20;99.90
2489;DHT22;1255;48.716;9.124;2022-10-03T08:20:45;11.30;99.90
2489;DHT22;1255;48.716;9.124;2022-10-03T08:26:31;11.30;99.90
2489;DHT22;1255;48.716;9.124;2022-10-03T08:29:24;11.30;99.90
2489;DHT22;1255;48.716;9.124;2022-10-03T08:32:29;11.40;99.90
2489;DHT22;1255;48.716;9.124;2022-10-03T08:35:31;11.40;99.90
2489;DHT22;1255;48.716;9.124;2022-10-03T08:44:37;11.50;99.90
2489;DHT22;1255;48.716;9.124;2022-10-03T08:50:15;11.50;99.90
2489;DHT22;1255;48.716;9.124;2022-10-03T08:53:01;11.60;99.90
2489;DHT22;1255;48.716;9.124;2022-10-03T08:55:43;11.70;99.90
2489;DHT22;1255;48.716;9.124;2022-10-03T09:01:29;12.10;99.90
2489;DHT22;1255;48.716;9.124;2022-10-03T09:04:49;12.10;99.90
2489;DHT22;1255;48.716;9.124;2022-10-03T09:07:29;12.20;99.90
2489;DHT22;1255;48.716;9.124;2022-10-03T09:10:33;12.40;99.90
2489;DHT22;1255;48.716;9.124;2022-10-03T09:13:39;12.70;99.90
2489;DHT22;1255;48.716;9.124;2022-10-03T09:16:41;13.10;99.90
2489;DHT22;1255;48.716;9.124;2022-10-03T09:19:37;13.30;99.90
2489;DHT22;1255;48.716;9.124;2022-10-03T09:22:31;13.30;99.90
2489;DHT22;1255;48.716;9.124;2022-10-03T09:25:30;13.20;99.90
2489;DHT22;1255;48.716;9.124;2022-10-03T09:31:16;12.90;99.90
2489;DHT22;1255;48.716;9.124;2022-10-03T09:34:14;12.80;99.90
2489;DHT22;1255;48.716;9.124;2022-10-03T09:37:19;12.60;99.90
2489;DHT22;1255;48.716;9.124;2022-10-03T09:40:17;12.50;99.90
2489;DHT22;1255;48.716;9.124;2022-10-03T09:43:25;12.50;99.90
2489;DHT22;1255;48.716;9.124;2022-10-03T09:49:31;12.40;99.90
2489;DHT22;1255;48.716;9.124;2022-10-03T09:52:23;12.40;99.90
2489;DHT22;1255;48.716;9.124;2022-10-03T09:58:39;12.60;99.90
2489;DHT22;1255;48.716;9.124;2022-10-03T10:01:18;12.90;99.90
2489;DHT22;1255;48.716;9.124;2022-10-03T10:07:27;13.20;99.90
2489;DHT22;1255;48.716;9.124;2022-10-03T10:10:17;13.20;99.90
2489;DHT22;1255;48.716;9.124;2022-10-03T10:13:21;13.10;99.90
2489;DHT22;1255;48.716;9.124;2022-10-03T10:16:19;13.00;99.90
2489;DHT22;1255;48.716;9.124;2022-10-03T10:19:22;13.00;99.90
2489;DHT22;1255;48.716;9.124;2022-10-03T10:22:17;13.00;99.90
2489;DHT22;1255;48.716;9.124;2022-10-03T10:25:17;13.00;99.90
2489;DHT22;1255;48.716;9.124;2022-10-03T10:31:23;13.20;99.90
2489;DHT22;1255;48.716;9.124;2022-10-03T10:34:21;13.20;99.90
2489;DHT22;1255;48.716;9.124;2022-10-03T10:40:35;13.10;99.90
2489;DHT22;1255;48.716;9.124;2022-10-03T10:43:31;13.10;99.90
2489;DHT22;1255;48.716;9.124;2022-10-03T10:46:54;13.10;99.90
2489;DHT22;1255;48.716;9.124;2022-10-03T10:50:03;13.10;99.90
2489;DHT22;1255;48.716;9.124;2022-10-03T10:52:49;13.70;99.90
2489;DHT22;1255;48.716;9.124;2022-10-03T10:56:04;14.10;99.90
2489;DHT22;1255;48.716;9.124;2022-10-03T10:59:13;14.50;99.90
2489;DHT22;1255;48.716;9.124;2022-10-03T11:02:24;14.60;99.90
2489;DHT22;1255;48.716;9.124;2022-10-03T11:08:34;14.20;99.90
2489;DHT22;1255;48.716;9.124;2022-10-03T11:21:11;13.60;99.90
2489;DHT22;1255;48.716;9.124;2022-10-03T11:24:07;13.40;99.90
2489;DHT22;1255;48.716;9.124;2022-10-03T11:30:05;13.60;99.90
2489;DHT22;1255;48.716;9.124;2022-10-03T11:33:05;14.10;99.90
2489;DHT22;1255;48.716;9.124;2022-10-03T11:36:09;14.70;99.90
2489;DHT22;1255;48.716;9.124;2022-10-03T11:38:51;14.90;99.90
2489;DHT22;1255;48.716;9.124;2022-10-03T11:41:38;14.90;99.90
2489;DHT22;1255;48.716;9.124;2022-10-03T11:44:19;14.80;99.90
2489;DHT22;1255;48.716;9.124;2022-10-03T11:47:04;14.70;99.90
2489;DHT22;1255;48.716;9.124;2022-10-03T11:52:34;14.30;99.90
2489;DHT22;1255;48.716;9.124;2022-10-03T11:55:17;14.10;99.90
2489;DHT22;1255;48.716;9.124;2022-10-03T11:57:53;14.10;99.90
2489;DHT22;1255;48.716;9.124;2022-10-03T12:00:24;14.10;99.90
2489;DHT22;1255;48.716;9.124;2022-10-03T12:03:10;14.10;99.90
2489;DHT22;1255;48.716;9.124;2022-10-03T12:05:47;14.10;99.90
2489;DHT22;1255;48.716;9.124;2022-10-03T12:08:23;14.00;99.90
2489;DHT22;1255;48.716;9.124;2022-10-03T12:11:16;14.00;99.90
2489;DHT22;1255;48.716;9.124;2022-10-03T12:14:06;14.10;99.90
2489;DHT22;1255;48.716;9.124;2022-10-03T12:16:55;14.10;99.90
2489;DHT22;1255;48.716;9.124;2022-10-03T12:19:29;14.10;99.90
2489;DHT22;1255;48.716;9.124;2022-10-03T12:22:01;14.30;99.90
2489;DHT22;1255;48.716;9.124;2022-10-03T12:24:33;14.70;99.90
2489;DHT22;1255;48.716;9.124;2022-10-03T12:27:14;15.20;99.90
2489;DHT22;1255;48.716;9.124;2022-10-03T12:29:51;15.60;99.90
2489;DHT22;1255;48.716;9.124;2022-10-03T12:32:27;16.10;99.90
2489;DHT22;1255;48.716;9.124;2022-10-03T12:35:07;16.50;99.90
2489;DHT22;1255;48.716;9.124;2022-10-03T12:37:44;16.80;99.90
2489;DHT22;1255;48.716;9.124;2022-10-03T12:40:20;16.70;99.90
2489;DHT22;1255;48.716;9.124;2022-10-03T12:43:01;16.60;99.90
2489;DHT22;1255;48.716;9.124;2022-10-03T12:45:34;16.60;99.90
2489;DHT22;1255;48.716;9.124;2022-10-03T12:48:35;16.80;99.90
2489;DHT22;1255;48.716;9.124;2022-10-03T12:51:17;17.00;99.90
2489;DHT22;1255;48.716;9.124;2022-10-03T12:53:54;17.30;99.90
2489;DHT22;1255;48.716;9.124;2022-10-03T12:56:31;17.40;99.90
2489;DHT22;1255;48.716;9.124;2022-10-03T12:59:11;17.80;99.90
2489;DHT22;1255;48.716;9.124;2022-10-03T13:02:14;18.00;99.90
2489;DHT22;1255;48.716;9.124;2022-10-03T13:04:57;18.10;99.90
2489;DHT22;1255;48.716;9.124;2022-10-03T13:07:34;18.00;99.90
2489;DHT22;1255;48.716;9.124;2022-10-03T13:10:13;17.90;99.90
2489;DHT22;1255;48.716;9.124;2022-10-03T13:12:47;17.50;99.90
2489;DHT22;1255;48.716;9.124;2022-10-03T13:15:42;17.10;99.90
2489;DHT22;1255;48.716;9.124;2022-10-03T13:18:34;16.70;99.90
2489;DHT22;1255;48.716;9.124;2022-10-03T13:21:07;16.30;99.90
2489;DHT22;1255;48.716;9.124;2022-10-03T13:23:41;16.00;99.90
2489;DHT22;1255;48.716;9.124;2022-10-03T13:26:15;15.80;99.90
2489;DHT22;1255;48.716;9.124;2022-10-03T13:28:59;15.50;99.90
2489;DHT22;1255;48.716;9.124;2022-10-03T13:31:30;15.50;99.90
2489;DHT22;1255;48.716;9.124;2022-10-03T13:34:00;15.30;99.90
2489;DHT22;1255;48.716;9.124;2022-10-03T13:36:32;15.30;99.90
2489;DHT22;1255;48.716;9.124;2022-10-03T13:39:09;15.30;99.90
2489;DHT22;1255;48.716;9.124;2022-10-03T13:41:58;15.20;99.90
2489;DHT22;1255;48.716;9.124;2022-10-03T13:44:36;15.10;99.90
2489;DHT22;1255;48.716;9.124;2022-10-03T13:49:53;15.00;99.90
2489;DHT22;1255;48.716;9.124;2022-10-03T13:52:30;14.80;99.90
2489;DHT22;1255;48.716;9.124;2022-10-03T13:55:19;14.70;99.90
2489;DHT22;1255;48.716;9.124;2022-10-03T13:58:16;14.70;99.90
2489;DHT22;1255;48.716;9.124;2022-10-03T14:01:11;14.60;99.90
2489;DHT22;1255;48.716;9.124;2022-10-03T14:03:50;14.60;99.90
2489;DHT22;1255;48.716;9.124;2022-10-03T14:06:24;14.50;99.90
2489;DHT22;1255;48.716;9.124;2022-10-03T14:09:07;14.50;99.90
2489;DHT22;1255;48.716;9.124;2022-10-03T14:11:41;14.50;99.90
2489;DHT22;1255;48.716;9.124;2022-10-03T14:17:09;14.60;99.90
2489;DHT22;1255;48.716;9.124;2022-10-03T14:19:46;14.70;99.90
2489;DHT22;1255;48.716;9.124;2022-10-03T14:22:31;14.60;99.90
2489;DHT22;1255;48.716;9.124;2022-10-03T14:25:16;14.60;99.90
2489;DHT22;1255;48.716;9.124;2022-10-03T14:27:52;14.50;99.90
2489;DHT22;1255;48.716;9.124;2022-10-03T14:30:21;14.50;99.90
2489;DHT22;1255;48.716;9.124;2022-10-03T14:32:57;14.60;99.90
2489;DHT22;1255;48.716;9.124;2022-10-03T14:35:35;14.60;99.90
2489;DHT22;1255;48.716;9.124;2022-10-03T14:38:13;14.60;99.90
2489;DHT22;1255;48.716;9.124;2022-10-03T14:40:46;14.70;99.90
2489;DHT22;1255;48.716;9.124;2022-10-03T14:43:24;14.80;99.90
2489;DHT22;1255;48.716;9.124;2022-10-03T14:45:56;15.00;99.90
2489;DHT22;1255;48.716;9.124;2022-10-03T14:48:27;15.20;99.90
2489;DHT22;1255;48.716;9.124;2022-10-03T14:51:02;15.40;99.90
2489;DHT22;1255;48.716;9.124;2022-10-03T14:53:33;15.60;99.90
2489;DHT22;1255;48.716;9.124;2022-10-03T14:56:05;15.80;99.90
2489;DHT22;1255;48.716;9.124;2022-10-03T14:58:35;16.10;99.90
2489;DHT22;1255;48.716;9.124;2022-10-03T15:01:09;16.30;99.90
2489;DHT22;1255;48.716;9.124;2022-10-03T15:03:42;16.50;99.90
2489;DHT22;1255;48.716;9.124;2022-10-03T15:06:19;16.60;99.90
2489;DHT22;1255;48.716;9.124;2022-10-03T15:08:48;16.70;99.90
2489;DHT22;1255;48.716;9.124;2022-10-03T15:11:23;16.70;99.90
2489;DHT22;1255;48.716;9.124;2022-10-03T15:13:54;16.70;99.90
2489;DHT22;1255;48.716;9.124;2022-10-03T15:16:23;16.70;99.90
2489;DHT22;1255;48.716;9.124;2022-10-03T15:18:54;16.80;99.90
2489;DHT22;1255;48.716;9.124;2022-10-03T15:21:22;16.80;99.90
2489;DHT22;1255;48.716;9.124;2022-10-03T15:23:56;16.80;99.90
2489;DHT22;1255;48.716;9.124;2022-10-03T15:26:25;16.80;99.90
2489;DHT22;1255;48.716;9.124;2022-10-03T15:28:56;16.70;99.90
2489;DHT22;1255;48.716;9.124;2022-10-03T15:31:31;16.60;99.90
2489;DHT22;1255;48.716;9.124;2022-10-03T15:34:01;16.60;99.90
2489;DHT22;1255;48.716;9.124;2022-10-03T15:36:30;16.50;99.90
2489;DHT22;1255;48.716;9.124;2022-10-03T15:39:03;16.40;99.90
2489;DHT22;1255;48.716;9.124;2022-10-03T15:41:33;16.40;99.90
2489;DHT22;1255;48.716;9.124;2022-10-03T15:44:04;16.50;99.90
2489;DHT22;1255;48.716;9.124;2022-10-03T15:46:35;16.40;99.90
2489;DHT22;1255;48.716;9.124;2022-10-03T15:49:27;16.30;99.90
2489;DHT22;1255;48.716;9.124;2022-10-03T15:51:58;16.30;99.90
2489;DHT22;1255;48.716;9.124;2022-10-03T15:54:27;16.20;99.90
2489;DHT22;1255;48.716;9.124;2022-10-03T15:56:58;16.20;99.90
2489;DHT22;1255;48.716;9.124;2022-10-03T15:59:29;16.10;99.90
2489;DHT22;1255;48.716;9.124;2022-10-03T16:02:07;16.00;99.90
2489;DHT22;1255;48.716;9.124;2022-10-03T16:04:36;15.90;99.90
2489;DHT22;1255;48.716;9.124;2022-10-03T16:07:07;15.70;99.90
2489;DHT22;1255;48.716;9.124;2022-10-03T16:09:43;15.70;99.90
2489;DHT22;1255;48.716;9.124;2022-10-03T16:12:39;15.60;99.90
2489;DHT22;1255;48.716;9.124;2022-10-03T16:15:16;15.40;99.90
2489;DHT22;1255;48.716;9.124;2022-10-03T16:17:47;15.20;99.90
2489;DHT22;1255;48.716;9.124;2022-10-03T16:20:21;15.10;99.90
2489;DHT22;1255;48.716;9.124;2022-10-03T16:22:51;15.00;99.90
2489;DHT22;1255;48.716;9.124;2022-10-03T16:25:20;14.90;99.90
2489;DHT22;1255;48.716;9.124;2022-10-03T16:27:53;14.70;99.90
2489;DHT22;1255;48.716;9.124;2022-10-03T16:30:23;14.50;99.90
2489;DHT22;1255;48.716;9.124;2022-10-03T16:32:59;14.30;99.90
2489;DHT22;1255;48.716;9.124;2022-10-03T16:35:35;14.10;99.90
2489;DHT22;1255;48.716;9.124;2022-10-03T16:38:07;14.00;99.90
2489;DHT22;1255;48.716;9.124;2022-10-03T16:40:41;13.80;99.90
2489;DHT22;1255;48.716;9.124;2022-10-03T16:43:15;13.60;99.90
2489;DHT22;1255;48.716;9.124;2022-10-03T16:45:45;13.50;99.90
2489;DHT22;1255;48.716;9.124;2022-10-03T16:48:18;13.30;99.90
2489;DHT22;1255;48.716;9.124;2022-10-03T16:51:06;13.30;99.90
2489;DHT22;1255;48.716;9.124;2022-10-03T16:53:40;13.10;99.90
2489;DHT22;1255;48.716;9.124;2022-10-03T16:56:12;13.00;99.90
2489;DHT22;1255;48.716;9.124;2022-10-03T16:58:43;12.90;99.90
2489;DHT22;1255;48.716;9.124;2022-10-03T17:01:15;12.70;99.90
2489;DHT22;1255;48.716;9.124;2022-10-03T17:03:53;12.60;99.90
2489;DHT22;1255;48.716;9.124;2022-10-03T17:06:26;12.50;99.90
2489;DHT22;1255;48.716;9.124;2022-10-03T17:08:58;12.40;99.90
2489;DHT22;1255;48.716;9.124;2022-10-03T17:11:27;12.30;99.90
2489;DHT22;1255;48.716;9.124;2022-10-03T17:13:58;12.20;99.90
2489;DHT22;1255;48.716;9.124;2022-10-03T17:16:33;12.10;99.90
2489;DHT22;1255;48.716;9.124;2022-10-03T17:19:17;12.00;99.90
2489;DHT22;1255;48.716;9.124;2022-10-03T17:21:50;11.90;99.90
2489;DHT22;1255;48.716;9.124;2022-10-03T17:24:30;11.80;99.90
2489;DHT22;1255;48.716;9.124;2022-10-03T17:27:01;11.70;99.90
2489;DHT22;1255;48.716;9.124;2022-10-03T17:29:33;11.60;99.90
2489;DHT22;1255;48.716;9.124;2022-10-03T17:32:10;11.50;99.90
2489;DHT22;1255;48.716;9.124;2022-10-03T17:34:40;11.40;99.90
2489;DHT22;1255;48.716;9.124;2022-10-03T17:37:37;11.30;99.90
2489;DHT22;1255;48.716;9.124;2022-10-03T17:40:17;11.30;99.90
2489;DHT22;1255;48.716;9.124;2022-10-03T17:42:52;11.20;99.90
2489;DHT22;1255;48.716;9.124;2022-10-03T17:45:39;11.10;99.90
2489;DHT22;1255;48.716;9.124;2022-10-03T17:48:12;11.00;99.90
2489;DHT22;1255;48.716;9.124;2022-10-03T17:50:50;10.90;99.90
2489;DHT22;1255;48.716;9.124;2022-10-03T17:53:25;10.90;99.90
2489;DHT22;1255;48.716;9.124;2022-10-03T17:55:55;10.80;99.90
2489;DHT22;1255;48.716;9.124;2022-10-03T17:58:24;10.70;99.90
2489;DHT22;1255;48.716;9.124;2022-10-03T18:01:02;10.70;99.90
2489;DHT22;1255;48.716;9.124;2022-10-03T18:03:36;10.60;99.90
2489;DHT22;1255;48.716;9.124;2022-10-03T18:06:41;10.60;99.90
2489;DHT22;1255;48.716;9.124;2022-10-03T18:09:24;10.50;99.90
2489;DHT22;1255;48.716;9.124;2022-10-03T18:11:53;10.40;99.90
2489;DHT22;1255;48.716;9.124;2022-10-03T18:14:32;10.40;99.90
2489;DHT22;1255;48.716;9.124;2022-10-03T18:17:05;10.30;99.90
2489;DHT22;1255;48.716;9.124;2022-10-03T18:19:54;10.30;99.90
2489;DHT22;1255;48.716;9.124;2022-10-03T18:22:29;10.20;99.90
2489;DHT22;1255;48.716;9.124;2022-10-03T18:25:00;10.10;99.90
2489;DHT22;1255;48.716;9.124;2022-10-03T18:28:12;10.10;99.90
2489;DHT22;1255;48.716;9.124;2022-10-03T18:30:45;10.00;99.90
2489;DHT22;1255;48.716;9.124;2022-10-03T18:33:17;10.00;99.90
2489;DHT22;1255;48.716;9.124;2022-10-03T18:35:47;9.90;99.90
2489;DHT22;1255;48.716;9.124;2022-10-03T18:38:18;9.90;99.90
2489;DHT22;1255;48.716;9.124;2022-10-03T18:40:52;9.80;99.90
2489;DHT22;1255;48.716;9.124;2022-10-03T18:43:29;9.80;99.90
2489;DHT22;1255;48.716;9.124;2022-10-03T18:46:13;9.80;99.90
2489;DHT22;1255;48.716;9.124;2022-10-03T18:48:48;9.70;99.90
2489;DHT22;1255;48.716;9.124;2022-10-03T18:51:26;9.70;99.90
2489;DHT22;1255;48.716;9.124;2022-10-03T18:53:58;9.60;99.90
2489;DHT22;1255;48.716;9.124;2022-10-03T18:56:28;9.60;99.90
2489;DHT22;1255;48.716;9.124;2022-10-03T18:59:18;9.50;99.90
2489;DHT22;1255;48.716;9.124;2022-10-03T19:01:51;9.50;99.90
2489;DHT22;1255;48.716;9.124;2022-10-03T19:04:30;9.40;99.90
2489;DHT22;1255;48.716;9.124;2022-10-03T19:07:02;9.40;99.90
2489;DHT22;1255;48.716;9.124;2022-10-03T19:09:38;9.40;99.90
2489;DHT22;1255;48.716;9.124;2022-10-03T19:12:13;9.30;99.90
2489;DHT22;1255;48.716;9.124;2022-10-03T19:14:55;9.30;99.90
2489;DHT22;1255;48.716;9.124;2022-10-03T19:17:32;9.30;99.90
2489;DHT22;1255;48.716;9.124;2022-10-03T19:20:16;9.30;99.90
2489;DHT22;1255;48.716;9.124;2022-10-03T19:22:54;9.20;99.90
2489;DHT22;1255;48.716;9.124;2022-10-03T19:25:25;9.20;99.90
2489;DHT22;1255;48.716;9.124;2022-10-03T19:27:56;9.20;99.90
2489;DHT22;1255;48.716;9.124;2022-10-03T19:30:26;9.10;99.90
2489;DHT22;1255;48.716;9.124;2022-10-03T19:32:58;9.10;99.90
2489;DHT22;1255;48.716;9.124;2022-10-03T19:35:26;9.10;99.90
2489;DHT22;1255;48.716;9.124;2022-10-03T19:37:56;9.10;99.90
2489;DHT22;1255;48.716;9.124;2022-10-03T19:40:42;9.10;99.90
2489;DHT22;1255;48.716;9.124;2022-10-03T19:43:30;9.00;99.90
2489;DHT22;1255;48.716;9.124;2022-10-03T19:46:10;9.00;99.90
2489;DHT22;1255;48.716;9.124;2022-10-03T19:48:43;9.00;99.90
2489;DHT22;1255;48.716;9.124;2022-10-03T19:51:14;8.90;99.90
2489;DHT22;1255;48.716;9.124;2022-10-03T19:53:42;8.90;99.90
2489;DHT22;1255;48.716;9.124;2022-10-03T19:56:13;8.90;99.90